Time,TemperatureF,DewpointF,PressureIn,WindDirection,WindDirectionDegrees,WindSpeedMPH,WindSpeedGustMPH,Humidity,HourlyPrecipIn,Conditions,Clouds,dailyrainin,SoftwareType,DateUTC
2013-04-23 00:01:00,62.0,12.0,29.59,North,0,0.0,0.0,14,0.00,,,0.00,,2013-04-23 07:01:00,
2013-04-23 00:21:00,61.0,11.0,29.59,North,0,0.0,0.0,14,0.00,,,0.00,,2013-04-23 07:21:00,
2013-04-23 00:32:00,60.0,11.0,29.59,North,0,0.0,0.0,14,0.00,,,0.00,,2013-04-23 07:32:00,
2013-04-23 00:52:00,60.0,11.0,29.59,North,0,0.0,0.0,14,0.00,,,0.00,,2013-04-23 07:52:00,
2013-04-23 01:01:00,59.0,10.0,29.59,North,0,0.0,0.0,14,0.00,,,0.00,,2013-04-23 08:01:00,
2013-04-23 01:21:00,59.0,10.0,29.56,North,0,0.0,0.0,14,0.00,,,0.00,,2013-04-23 08:21:00,
2013-04-23 01:31:00,59.0,10.0,29.56,North,0,0.0,0.0,14,0.00,,,0.00,,2013-04-23 08:31:00,
2013-04-23 01:52:00,59.0,10.0,29.52,North,0,0.0,0.0,14,0.00,,,0.00,,2013-04-23 08:52:00,
2013-04-23 02:01:00,58.0,9.0,29.56,North,0,0.0,0.0,14,0.00,,,0.00,,2013-04-23 09:01:00,
2013-04-23 02:21:00,57.0,8.0,29.52,North,0,0.0,0.0,14,0.00,,,0.00,,2013-04-23 09:21:00,
2013-04-23 02:32:00,57.0,10.0,29.56,North,0,0.0,0.0,15,0.00,,,0.00,,2013-04-23 09:32:00,
2013-04-23 03:02:00,56.0,9.0,29.52,North,0,0.0,0.0,15,0.00,,,0.00,,2013-04-23 10:02:00,
2013-04-23 03:22:00,55.0,8.0,29.52,North,0,0.0,0.0,15,0.00,,,0.00,,2013-04-23 10:22:00,
2013-04-23 03:32:00,55.0,8.0,29.56,North,0,0.0,0.0,15,0.00,,,0.00,,2013-04-23 10:32:00,
2013-04-23 03:52:00,55.0,8.0,29.56,North,0,0.0,0.0,15,0.00,,,0.00,,2013-04-23 10:52:00,
2013-04-23 04:02:00,54.0,7.0,29.56,North,0,0.0,0.0,15,0.00,,,0.00,,2013-04-23 11:02:00,
2013-04-23 04:11:00,54.0,7.0,29.56,North,0,0.0,0.0,15,0.00,,,0.00,,2013-04-23 11:11:00,
2013-04-23 04:21:00,54.0,7.0,29.56,North,0,0.0,0.0,15,0.00,,,0.00,,2013-04-23 11:21:00,
2013-04-23 04:32:00,53.0,11.0,29.56,North,0,0.0,0.0,18,0.00,,,0.00,,2013-04-23 11:32:00,
2013-04-23 04:42:00,53.0,11.0,29.59,North,0,0.0,0.0,18,0.00,,,0.00,,2013-04-23 11:42:00,
2013-04-23 04:52:00,53.0,11.0,29.59,North,0,0.0,0.0,18,0.00,,,0.00,,2013-04-23 11:52:00,
2013-04-23 05:01:00,53.0,11.0,29.59,North,0,0.0,0.0,18,0.00,,,0.00,,2013-04-23 12:01:00,
2013-04-23 05:22:00,53.0,11.0,29.59,North,0,0.0,0.0,18,0.00,,,0.00,,2013-04-23 12:22:00,
2013-04-23 05:32:00,53.0,11.0,29.59,North,0,0.0,0.0,18,0.00,,,0.00,,2013-04-23 12:32:00,
2013-04-23 05:52:00,53.0,11.0,29.56,North,0,0.0,0.0,18,0.00,,,0.00,,2013-04-23 12:52:00,
2013-04-23 06:01:00,52.0,10.0,29.59,North,0,0.0,0.0,18,0.00,,,0.00,,2013-04-23 13:01:00,
2013-04-23 06:21:00,52.0,10.0,29.59,North,0,0.0,0.0,18,0.00,,,0.00,,2013-04-23 13:21:00,
2013-04-23 06:31:00,53.0,11.0,29.59,North,0,0.0,0.0,18,0.00,,,0.00,,2013-04-23 13:31:00,
2013-04-23 07:01:00,53.0,14.0,29.62,North,0,0.0,0.0,21,0.00,,,0.00,,2013-04-23 14:01:00,
2013-04-23 07:22:00,55.0,15.0,29.66,North,0,0.0,0.0,20,0.00,,,0.00,,2013-04-23 14:22:00,
2013-04-23 07:31:00,56.0,16.0,29.66,North,0,0.0,0.0,20,0.00,,,0.00,,2013-04-23 14:31:00,
2013-04-23 08:11:00,62.0,19.0,29.66,North,0,0.0,0.0,19,0.00,,,0.00,,2013-04-23 15:11:00,
2013-04-23 08:21:00,66.0,17.0,29.66,North,0,0.0,0.0,15,0.00,,,0.00,,2013-04-23 15:21:00,
2013-04-23 08:32:00,68.0,19.0,29.66,North,0,0.0,0.0,15,0.00,,,0.00,,2013-04-23 15:32:00,
2013-04-23 08:53:00,70.0,19.0,29.66,North,0,0.0,0.0,14,0.00,,,0.00,,2013-04-23 15:53:00,
2013-04-23 09:02:00,73.0,19.0,29.69,North,0,0.0,0.0,13,0.00,,,0.00,,2013-04-23 16:02:00,
2013-04-23 09:33:00,76.0,22.0,29.66,North,0,0.0,0.0,13,0.00,,,0.00,,2013-04-23 16:33:00,
2013-04-23 09:52:00,78.0,23.0,29.66,North,0,0.0,0.0,13,0.00,,,0.00,,2013-04-23 16:52:00,
2013-04-23 10:02:00,79.0,22.0,29.66,North,0,0.0,0.0,12,0.00,,,0.00,,2013-04-23 17:02:00,
2013-04-23 10:22:00,81.0,24.0,29.66,North,0,0.0,0.0,12,0.00,,,0.00,,2013-04-23 17:22:00,
2013-04-23 10:32:00,81.0,24.0,29.66,North,0,0.0,0.0,12,0.00,,,0.00,,2013-04-23 17:32:00,
2013-04-23 10:53:00,81.0,24.0,29.66,North,0,0.0,0.0,12,0.00,,,0.00,,2013-04-23 17:53:00,
2013-04-23 11:01:00,81.0,24.0,29.66,North,0,0.0,0.0,12,0.00,,,0.00,,2013-04-23 18:01:00,
2013-04-23 11:12:00,81.0,24.0,29.66,North,0,0.0,0.0,12,0.00,,,0.00,,2013-04-23 18:12:00,
2013-04-23 11:22:00,79.0,22.0,29.66,North,0,0.0,0.0,12,0.00,,,0.00,,2013-04-23 18:22:00,
2013-04-23 11:31:00,80.0,23.0,29.66,North,0,0.0,0.0,12,0.00,,,0.00,,2013-04-23 18:31:00,
2013-04-23 11:42:00,80.0,23.0,29.66,North,0,0.0,0.0,12,0.00,,,0.00,,2013-04-23 18:42:00,
2013-04-23 11:52:00,80.0,23.0,29.66,North,0,0.0,0.0,12,0.00,,,0.00,,2013-04-23 18:52:00,
2013-04-23 12:01:00,81.0,24.0,29.62,North,0,0.0,0.0,12,0.00,,,0.00,,2013-04-23 19:01:00,
2013-04-23 12:11:00,81.0,24.0,29.62,North,0,0.0,0.0,12,0.00,,,0.00,,2013-04-23 19:11:00,
2013-04-23 12:21:00,83.0,23.0,29.66,North,0,0.0,0.0,11,0.00,,,0.00,,2013-04-23 19:21:00,
2013-04-23 12:32:00,83.0,23.0,29.66,North,0,0.0,0.0,11,0.00,,,0.00,,2013-04-23 19:32:00,
2013-04-23 12:42:00,83.0,23.0,29.66,North,0,0.0,0.0,11,0.00,,,0.00,,2013-04-23 19:42:00,
2013-04-23 12:52:00,83.0,23.0,29.66,North,0,0.0,0.0,11,0.00,,,0.00,,2013-04-23 19:52:00,
2013-04-23 13:01:00,84.0,24.0,29.66,North,0,0.0,0.0,11,0.00,,,0.00,,2013-04-23 20:01:00,
2013-04-23 13:21:00,83.0,23.0,29.62,North,0,0.0,0.0,11,0.00,,,0.00,,2013-04-23 20:21:00,
2013-04-23 13:31:00,82.0,24.0,29.62,North,0,0.0,0.0,12,0.00,,,0.00,,2013-04-23 20:31:00,
2013-04-23 13:41:00,82.0,24.0,29.62,North,0,0.0,0.0,12,0.00,,,0.00,,2013-04-23 20:41:00,
2013-04-23 13:52:00,83.0,23.0,29.62,North,0,0.0,0.0,11,0.00,,,0.00,,2013-04-23 20:52:00,
2013-04-23 14:01:00,82.0,24.0,29.66,North,0,0.0,0.0,12,0.00,,,0.00,,2013-04-23 21:01:00,
2013-04-23 14:21:00,82.0,24.0,29.62,North,0,0.0,0.0,12,0.00,,,0.00,,2013-04-23 21:21:00,
2013-04-23 14:32:00,82.0,24.0,29.62,North,0,0.0,0.0,12,0.00,,,0.00,,2013-04-23 21:32:00,
2013-04-23 14:52:00,82.0,22.0,29.62,North,0,0.0,0.0,11,0.00,,,0.00,,2013-04-23 21:52:00,
2013-04-23 15:02:00,82.0,24.0,29.59,North,0,0.0,0.0,12,0.00,,,0.00,,2013-04-23 22:02:00,
2013-04-23 15:22:00,83.0,23.0,29.59,North,0,0.0,0.0,11,0.00,,,0.00,,2013-04-23 22:22:00,
2013-04-23 15:32:00,82.0,24.0,29.59,North,0,0.0,0.0,12,0.00,,,0.00,,2013-04-23 22:32:00,
2013-04-23 15:52:00,81.0,24.0,29.59,North,0,0.0,0.0,12,0.00,,,0.00,,2013-04-23 22:52:00,
2013-04-23 16:02:00,81.0,24.0,29.59,North,0,0.0,0.0,12,0.00,,,0.00,,2013-04-23 23:02:00,
2013-04-23 16:21:00,80.0,23.0,29.59,North,0,0.0,0.0,12,0.00,,,0.00,,2013-04-23 23:21:00,
2013-04-23 16:31:00,80.0,23.0,29.59,North,0,0.0,0.0,12,0.00,,,0.00,,2013-04-23 23:31:00,
2013-04-23 16:41:00,78.0,23.0,29.59,North,0,0.0,0.0,13,0.00,,,0.00,,2013-04-23 23:41:00,
2013-04-23 17:01:00,78.0,23.0,29.59,North,0,0.0,0.0,13,0.00,,,0.00,,2013-04-24 00:01:00,
2013-04-23 17:21:00,77.0,16.0,29.59,North,0,0.0,0.0,10,0.00,,,0.00,,2013-04-24 00:21:00,
2013-04-23 17:32:00,76.0,16.0,29.59,North,0,0.0,0.0,10,0.00,,,0.00,,2013-04-24 00:32:00,
2013-04-23 17:52:00,75.0,15.0,29.59,North,0,0.0,0.0,10,0.00,,,0.00,,2013-04-24 00:52:00,
2013-04-23 18:01:00,75.0,17.0,29.56,North,0,0.0,0.0,11,0.00,,,0.00,,2013-04-24 01:01:00,
2013-04-23 18:21:00,74.0,16.0,29.59,North,0,0.0,0.0,11,0.00,,,0.00,,2013-04-24 01:21:00,
2013-04-23 18:31:00,73.0,15.0,29.59,North,0,0.0,0.0,11,0.00,,,0.00,,2013-04-24 01:31:00,
2013-04-23 18:52:00,72.0,15.0,29.59,North,0,0.0,0.0,11,0.00,,,0.00,,2013-04-24 01:52:00,
2013-04-23 19:02:00,71.0,16.0,29.59,North,0,0.0,0.0,12,0.00,,,0.00,,2013-04-24 02:02:00,
2013-04-23 19:22:00,70.0,15.0,29.59,North,0,0.0,0.0,12,0.00,,,0.00,,2013-04-24 02:22:00,
2013-04-23 19:32:00,69.0,14.0,29.59,North,0,0.0,0.0,12,0.00,,,0.00,,2013-04-24 02:32:00,
2013-04-23 19:43:00,69.0,14.0,29.59,North,0,0.0,0.0,12,0.00,,,0.00,,2013-04-24 02:43:00,
2013-04-23 20:02:00,66.0,14.0,29.62,North,0,0.0,0.0,13,0.00,,,0.00,,2013-04-24 03:02:00,
2013-04-23 20:33:00,64.0,12.0,29.66,North,0,0.0,0.0,13,0.00,,,0.00,,2013-04-24 03:33:00,
2013-04-23 20:43:00,64.0,12.0,29.66,North,0,0.0,0.0,13,0.00,,,0.00,,2013-04-24 03:43:00,
2013-04-23 20:58:00,63.0,11.0,29.66,North,0,0.0,0.0,13,0.00,,,0.00,,2013-04-24 03:58:00,
2013-04-23 21:02:00,62.0,12.0,29.69,North,0,0.0,0.0,14,0.00,,,0.00,,2013-04-24 04:02:00,
2013-04-23 21:12:00,62.0,12.0,29.69,North,0,0.0,0.0,14,0.00,,,0.00,,2013-04-24 04:12:00,
2013-04-23 21:22:00,62.0,12.0,29.66,North,0,0.0,0.0,14,0.00,,,0.00,,2013-04-24 04:22:00,
2013-04-23 21:33:00,61.0,11.0,29.62,North,0,0.0,0.0,14,0.00,,,0.00,,2013-04-24 04:33:00,
2013-04-23 21:43:00,61.0,11.0,29.62,North,0,0.0,0.0,14,0.00,,,0.00,,2013-04-24 04:43:00,
2013-04-23 21:52:00,61.0,11.0,29.66,North,0,0.0,0.0,14,0.00,,,0.00,,2013-04-24 04:52:00,
2013-04-23 22:02:00,61.0,11.0,29.66,North,0,0.0,0.0,14,0.00,,,0.00,,2013-04-24 05:02:00,
2013-04-23 22:12:00,61.0,11.0,29.66,North,0,0.0,0.0,14,0.00,,,0.00,,2013-04-24 05:12:00,
2013-04-23 22:21:00,60.0,11.0,29.66,North,0,0.0,0.0,14,0.00,,,0.00,,2013-04-24 05:21:00,
2013-04-23 22:32:00,59.0,10.0,29.66,North,0,0.0,0.0,14,0.00,,,0.00,,2013-04-24 05:32:00,
2013-04-23 22:42:00,59.0,10.0,29.66,North,0,0.0,0.0,14,0.00,,,0.00,,2013-04-24 05:42:00,
2013-04-23 22:52:00,59.0,10.0,29.66,North,0,0.0,0.0,14,0.00,,,0.00,,2013-04-24 05:52:00,
2013-04-23 23:02:00,58.0,9.0,29.66,North,0,0.0,0.0,14,0.00,,,0.00,,2013-04-24 06:02:00,
2013-04-23 23:11:00,58.0,9.0,29.66,North,0,0.0,0.0,14,0.00,,,0.00,,2013-04-24 06:11:00,
2013-04-23 23:21:00,58.0,9.0,29.66,North,0,0.0,0.0,14,0.00,,,0.00,,2013-04-24 06:21:00,
2013-04-23 23:32:00,57.0,8.0,29.66,North,0,0.0,0.0,14,0.00,,,0.00,,2013-04-24 06:32:00,
2013-04-23 23:41:00,57.0,8.0,29.66,North,0,0.0,0.0,14,0.00,,,0.00,,2013-04-24 06:41:00,
2013-04-23 23:52:00,57.0,10.0,29.66,North,0,0.0,0.0,15,0.00,,,0.00,,2013-04-24 06:52:00,